Rotterdam Express — DMRX — position and weather

sailwx.info

Track history (hours):
 
Tides and Currents Weather Stations Pressure Air Temp Water Temp Dewpoint Dewpoint Depression Visibility Wind Speed Wind Dir Waves Ship Positions

Rotterdam Express

Last reported at 2014-Jul-24 06:00 UTC. Time now 2014-Jul-24 10:46 UTC.
Position N 49°12' W 026°36'.

Length 294 m; beam 32.2 m; draft 13.6 m.

Type: Ship. MMSI: 211335760.

Wind from 150 at 10 knots

Barometer 1016.5 mb
Air temperature 16.0 ° C
Visibility: greater than 10.8 NM
Dewpoint 13.5 ° C
Water temperature 17.0 ° C

Date/timePositionNaut miles runAvg speedWind from/ knotsBaromVisibWave heightAir tempDewpointWater temp
2014-Jul-24 06:00N 49°12' W 026°36'9215.3 150 / 101016.510.8 16.013.517.0
2014-Jul-24 00:00N 49°30' W 024°18'9816.3 180 / 121020.010.8 16.010.818.0
2014-Jul-23 18:00N 49°42' W 021°48'19416.2 240 / 111020.010.8 1.018.012.118.0
2014-Jul-23 06:00N 49°54' W 016°48'6215.5 230 / 51018.010.8 17.014.618.0
2014-Jul-23 02:00N 49°54' W 015°12'12815.9 360 / 51019.0 5.4 0.516.015.219.5
2014-Jul-22 18:00N 49°54' W 011°54'19816.5 170 / 141021.010.8 1.019.517.219.0
2014-Jul-22 06:00N 49°42' W 006°48'9716.2 999 / 41023.010.8 19.516.420.0
2014-Jul-22 00:00N 49°48' W 004°18'12915.3 320 / 131022.010.8 19.017.620.0
2014-Jul-21 15:33N 49°57' W 000°58'1414.5
2014-Jul-21 14:33N 49°47' W 000°41'1615.5
2014-Jul-21 13:33N 49°36' W 000°23'1413.9
2014-Jul-21 12:33N 49°31' W 000°03'9 8.6
2014-Jul-21 11:33N 49°28' E 000°09'0 0.0
2014-Jul-21 10:28N 49°28' E 000°09'0 0.0
2014-Jul-21 09:28N 49°28' E 000°09'0 0.0
2014-Jul-21 08:33N 49°28' E 000°09'0 0.0
2014-Jul-21 07:33N 49°28' E 000°09'0 0.0
2014-Jul-21 06:32N 49°28' E 000°09'0 0.0
2014-Jul-21 05:32N 49°28' E 000°09'0 0.0
2014-Jul-21 04:33N 49°28' E 000°09'5 4.7
2014-Jul-21 03:33N 49°30' E 000°02'1111.1
2014-Jul-21 02:33N 49°36' W 000°11'4216.3
2014-Jul-21 00:00N 50°18' W 000°06'2516.2 300 / 181013.510.8 17.515.917.0
2014-Jul-20 22:28N 50°33' E 000°25'1617.3
2014-Jul-20 21:34N 50°40' E 000°47'1817.5
2014-Jul-20 20:34N 50°51' E 001°08'2017.7
2014-Jul-20 19:25N 51°04' E 001°33'1416.7
2014-Jul-20 18:34N 51°16' E 001°47'1716.8
2014-Jul-20 17:33N 51°30' E 002°00'1717.1
2014-Jul-20 16:32N 51°43' E 002°19'7516.6
2014-Jul-20 12:00N 52°42' E 003°36'1224.6 350 / 41009.5 5.4 18.316.918.0
2014-Jul-20 11:29N 52°52' E 003°49'1717.3
2014-Jul-20 10:30N 53°03' E 004°11'1516.1
2014-Jul-20 09:33N 53°14' E 004°27'1616.2
2014-Jul-20 08:33N 53°29' E 004°37'1717.1
2014-Jul-20 07:33N 53°36' E 005°04'1717.4
2014-Jul-20 06:34N 53°41' E 005°32'1717.2
2014-Jul-20 05:33N 53°47' E 005°60'1717.5
2014-Jul-20 04:33N 53°52' E 006°28'1917.4
2014-Jul-20 03:27N 53°55' E 006°60'1517.3
2014-Jul-20 02:33N 53°59' E 007°25'1413.7
2014-Jul-20 01:30N 53°53' E 007°47'1212.8
2014-Jul-20 00:33N 53°49' E 008°06'1414.3
2014-Jul-19 23:33N 53°39' E 008°24'6 6.4
2014-Jul-19 22:33N 53°35' E 008°32'0 0.0
2014-Jul-19 21:30N 53°35' E 008°32'0 0.0
2014-Jul-19 20:26N 53°35' E 008°32'0 0.0
2014-Jul-19 19:29N 53°35' E 008°32'0 0.0
2014-Jul-19 18:32N 53°35' E 008°32'0 0.0
2014-Jul-19 17:31N 53°35' E 008°32'0 0.0
2014-Jul-19 16:25N 53°35' E 008°32'0 0.0
2014-Jul-19 15:33N 53°35' E 008°32'0 0.0
2014-Jul-19 14:33N 53°35' E 008°32'0 0.0
2014-Jul-19 13:32N 53°35' E 008°32'0 0.0
2014-Jul-19 12:32N 53°35' E 008°32'0 0.0
2014-Jul-19 11:32N 53°35' E 008°32'0 0.0
2014-Jul-19 10:32N 53°35' E 008°32'0 0.0
2014-Jul-19 09:31N 53°35' E 008°32'0 0.0
2014-Jul-19 08:28N 53°35' E 008°32'0 0.0
2014-Jul-19 07:27N 53°35' E 008°32'  
Track history (hours):
 
Tides and Currents Weather Stations Pressure Air Temp Water Temp Dewpoint Dewpoint Depression Visibility Wind Speed Wind Dir Waves Ship Positions

Rotterdam Express

Last reported at 2014-Jul-24 06:00 UTC. Time now 2014-Jul-24 10:46 UTC.
Position N 49°12' W 026°36'.

Length 294 m; beam 32.2 m; draft 13.6 m.

Type: Ship. MMSI: 211335760.

Wind from 150 at 10 knots

Barometer 1016.5 mb
Air temperature 16.0 ° C
Visibility: greater than 10.8 NM
Dewpoint 13.5 ° C
Water temperature 17.0 ° C

Date/timePositionNaut miles runAvg speedWind from/ knotsBaromVisibWave heightAir tempDewpointWater temp
2014-Jul-24 06:00N 49°12' W 026°36'9215.3 150 / 101016.510.8 16.013.517.0
2014-Jul-24 00:00N 49°30' W 024°18'9816.3 180 / 121020.010.8 16.010.818.0
2014-Jul-23 18:00N 49°42' W 021°48'19416.2 240 / 111020.010.8 1.018.012.118.0
2014-Jul-23 06:00N 49°54' W 016°48'6215.5 230 / 51018.010.8 17.014.618.0
2014-Jul-23 02:00N 49°54' W 015°12'12815.9 360 / 51019.0 5.4 0.516.015.219.5
2014-Jul-22 18:00N 49°54' W 011°54'19816.5 170 / 141021.010.8 1.019.517.219.0
2014-Jul-22 06:00N 49°42' W 006°48'9716.2 999 / 41023.010.8 19.516.420.0
2014-Jul-22 00:00N 49°48' W 004°18'12915.3 320 / 131022.010.8 19.017.620.0
2014-Jul-21 15:33N 49°57' W 000°58'1414.5
2014-Jul-21 14:33N 49°47' W 000°41'1615.5
2014-Jul-21 13:33N 49°36' W 000°23'1413.9
2014-Jul-21 12:33N 49°31' W 000°03'9 8.6
2014-Jul-21 11:33N 49°28' E 000°09'0 0.0
2014-Jul-21 10:28N 49°28' E 000°09'0 0.0
2014-Jul-21 09:28N 49°28' E 000°09'0 0.0
2014-Jul-21 08:33N 49°28' E 000°09'0 0.0
2014-Jul-21 07:33N 49°28' E 000°09'0 0.0
2014-Jul-21 06:32N 49°28' E 000°09'0 0.0
2014-Jul-21 05:32N 49°28' E 000°09'0 0.0
2014-Jul-21 04:33N 49°28' E 000°09'5 4.7
2014-Jul-21 03:33N 49°30' E 000°02'1111.1
2014-Jul-21 02:33N 49°36' W 000°11'4216.3
2014-Jul-21 00:00N 50°18' W 000°06'2516.2 300 / 181013.510.8 17.515.917.0
2014-Jul-20 22:28N 50°33' E 000°25'1617.3
2014-Jul-20 21:34N 50°40' E 000°47'1817.5
2014-Jul-20 20:34N 50°51' E 001°08'2017.7
2014-Jul-20 19:25N 51°04' E 001°33'1416.7
2014-Jul-20 18:34N 51°16' E 001°47'1716.8
2014-Jul-20 17:33N 51°30' E 002°00'1717.1
2014-Jul-20 16:32N 51°43' E 002°19'7516.6
2014-Jul-20 12:00N 52°42' E 003°36'1224.6 350 / 41009.5 5.4 18.316.918.0
2014-Jul-20 11:29N 52°52' E 003°49'1717.3
2014-Jul-20 10:30N 53°03' E 004°11'1516.1
2014-Jul-20 09:33N 53°14' E 004°27'1616.2
2014-Jul-20 08:33N 53°29' E 004°37'1717.1
2014-Jul-20 07:33N 53°36' E 005°04'1717.4
2014-Jul-20 06:34N 53°41' E 005°32'1717.2
2014-Jul-20 05:33N 53°47' E 005°60'1717.5
2014-Jul-20 04:33N 53°52' E 006°28'1917.4
2014-Jul-20 03:27N 53°55' E 006°60'1517.3
2014-Jul-20 02:33N 53°59' E 007°25'1413.7
2014-Jul-20 01:30N 53°53' E 007°47'1212.8
2014-Jul-20 00:33N 53°49' E 008°06'1414.3
2014-Jul-19 23:33N 53°39' E 008°24'6 6.4
2014-Jul-19 22:33N 53°35' E 008°32'0 0.0
2014-Jul-19 21:30N 53°35' E 008°32'0 0.0
2014-Jul-19 20:26N 53°35' E 008°32'0 0.0
2014-Jul-19 19:29N 53°35' E 008°32'0 0.0
2014-Jul-19 18:32N 53°35' E 008°32'0 0.0
2014-Jul-19 17:31N 53°35' E 008°32'0 0.0
2014-Jul-19 16:25N 53°35' E 008°32'0 0.0
2014-Jul-19 15:33N 53°35' E 008°32'0 0.0
2014-Jul-19 14:33N 53°35' E 008°32'0 0.0
2014-Jul-19 13:32N 53°35' E 008°32'0 0.0
2014-Jul-19 12:32N 53°35' E 008°32'0 0.0
2014-Jul-19 11:32N 53°35' E 008°32'0 0.0
2014-Jul-19 10:32N 53°35' E 008°32'0 0.0
2014-Jul-19 09:31N 53°35' E 008°32'0 0.0
2014-Jul-19 08:28N 53°35' E 008°32'0 0.0
2014-Jul-19 07:27N 53°35' E 008°32'  

Dump ship's entire track history